Rain From: 21-07-2018 02:00 Until: 16:00 warning for: Rain Level: Yellow info button
suomi:
Sadevaroitus: Aamuyöstä alkaen voi sataa rankasti, yli 20 mm tunnissa.

svenska:
Nederbördsvarning: Från och med efternatten kan det förekomma synnerligen riklig nederbörd, mer än 20 mm i timmen.

english:
Heavy rain warning: From the early morning on heavy rain of more than 20 mm per hour can be expected. 

Forest fire From: 20-07-2018 23:00 Until: 21-07-2018 11:00 warning for: Forest fire Level: Yellow info button
suomi:
Metsäpalovaroitus on voimassa.

svenska:
Varning för skogsbrand gäller.

english:
A forest fire warning is in force. 


Thunder radar more information blitzortung!


Löydät sääaseman tiedot myös:

European Weather Network

Finland Weather Exchange

Weather Underground

AWEKAS



Weather Underground säähistoriasivu

Päivittäin yhteenveto Syyskuu 28, 2017 Yksiköt:  Englantilaiset    Metriset   Molemmat
« Edellinen Päivä
Seuraava Päivä »
Päivittäin Viikoittain Kuukausittain Vuosittain Mukautettu
  Korkea: Matala: Keskiarvo:
Lämpötila: TemperatureC °F 2.6 °F 7.6 °F
Kastepiste: DewpointC °F 2.0 °F 6.5 °F
Kosteus: Humidity % 84 % 92 %
Tuulen nopeus: WindSpeedKMH mph 0.0 mph 0 mph
Tuulenpuuska: WindSpeedGustKMH mph - -
Tuuli:- - North
Ilmanpaine: PressurehPa in 1040.2 in -
Sade: 0.0 in    
Historical Graphs
 
 
Taulukkotiedot Syyskuu 28, 2017
Aika Lämpötila Kastepiste Ilmanpaine Tuuli Tuulen nopeus Tuulenpuuska Kosteus Sademäärä (tunneittain)
TemperatureC °F DewpointC °F PressurehPa in Calm     Humidity % HourlyPrecipMM in
00:00 8.8 °F 8.3 °F 1042.5 in Calm     97 % 0.0 in
00:15 8.7 °F 8.2 °F 1042.9 in Calm     97 % 0.0 in
00:30 8.6 °F 8.2 °F 1042.9 in Calm     97 % 0.0 in
00:45 8.6 °F 8.1 °F 1042.9 in Calm     97 % 0.0 in
01:00 8.6 °F 8.1 °F 1042.9 in Calm     97 % 0.0 in
01:30 8.3 °F 7.9 °F 1042.9 in Calm     97 % 0.0 in
01:45 8.3 °F 7.9 °F 1042.9 in Calm     97 % 0.0 in
02:00 8.3 °F 7.8 °F 1042.9 in Calm     97 % 0.0 in
02:15 8.2 °F 7.8 °F 1042.9 in Calm     97 % 0.0 in
02:30 8.2 °F 7.7 °F 1042.9 in Calm     97 % 0.0 in
02:45 8.2 °F 7.8 °F 1042.9 in Calm     97 % 0.0 in
03:00 8.2 °F 7.8 °F 1042.9 in Calm     97 % 0.0 in
03:15 8.2 °F 7.8 °F 1042.9 in Calm     97 % 0.0 in
03:30 8.1 °F 7.7 °F 1042.9 in Calm   1.6 mph 97 % 0.0 in
03:45 8.1 °F 7.7 °F 1042.9 in Calm     97 % 0.0 in
04:00 8.1 °F 7.7 °F 1042.9 in Calm     97 % 0.0 in
04:15 8.1 °F 7.6 °F 1042.9 in Calm     97 % 0.0 in
04:30 8.1 °F 7.6 °F 1042.9 in Calm     97 % 0.0 in
04:45 8.1 °F 7.6 °F 1042.9 in Calm     97 % 0.0 in
05:00 8.0 °F 7.6 °F 1042.5 in Calm     97 % 0.0 in
05:15 7.9 °F 7.3 °F 1042.5 in Calm     96 % 0.0 in
05:30 7.9 °F 7.3 °F 1042.5 in Calm   1.6 mph 96 % 0.0 in
05:45 7.9 °F 7.3 °F 1042.5 in Calm     96 % 0.0 in
06:00 7.8 °F 7.2 °F 1042.5 in Calm     96 % 0.0 in
06:15 7.8 °F 7.2 °F 1042.5 in Calm     96 % 0.0 in
06:30 7.8 °F 7.2 °F 1042.5 in Calm   3.2 mph 96 % 0.0 in
06:45 7.7 °F 7.0 °F 1042.5 in Calm     95 % 0.0 in
07:00 7.7 °F 6.9 °F 1042.5 in Calm     95 % 0.0 in
07:15 7.7 °F 7.0 °F 1042.5 in Calm     95 % 0.0 in
07:30 7.7 °F 6.9 °F 1042.5 in Calm     95 % 0.0 in
07:45 7.6 °F 6.8 °F 1042.5 in Calm   3.2 mph 95 % 0.0 in
08:00 7.6 °F 6.8 °F 1042.5 in Calm     95 % 0.0 in
08:15 7.6 °F 6.9 °F 1042.5 in Calm     95 % 0.0 in
08:30 7.6 °F 6.9 °F 1042.5 in Calm     95 % 0.0 in
08:45 7.6 °F 6.8 °F 1042.5 in Calm   3.2 mph 95 % 0.0 in
09:00 7.6 °F 6.8 °F 1042.9 in Calm   1.6 mph 95 % 0.0 in
09:15 7.4 °F 6.5 °F 1042.5 in Calm   3.2 mph 94 % 0.0 in
09:30 7.5 °F 6.6 °F 1042.5 in Calm     94 % 0.0 in
09:45 7.6 °F 6.7 °F 1042.5 in Calm     94 % 0.0 in
10:00 7.7 °F 6.8 °F 1042.5 in Calm     94 % 0.0 in
10:15 7.7 °F 6.8 °F 1042.9 in Calm     94 % 0.0 in
10:30 7.8 °F 6.9 °F 1042.9 in Calm     94 % 0.0 in
10:45 7.7 °F 6.7 °F 1042.9 in Calm   3.2 mph 93 % 0.0 in
11:00 7.7 °F 6.6 °F 1042.5 in Calm     93 % 0.0 in
11:15 7.7 °F 6.7 °F 1042.5 in Calm     93 % 0.0 in
11:30 7.9 °F 6.8 °F 1042.9 in Calm     93 % 0.0 in
11:45 8.1 °F 7.0 °F 1042.9 in Calm     93 % 0.0 in
12:00 8.0 °F 6.8 °F 1042.9 in Calm     92 % 0.0 in
12:15 8.1 °F 6.9 °F 1042.5 in Calm   3.2 mph 92 % 0.0 in
12:30 8.3 °F 7.1 °F 1042.5 in Calm     92 % 0.0 in
12:45 8.4 °F 7.0 °F 1042.5 in Calm     91 % 0.0 in
13:00 8.4 °F 7.1 °F 1042.5 in Calm     91 % 0.0 in
13:15 8.4 °F 6.9 °F 1042.5 in Calm   1.6 mph 90 % 0.0 in
13:30 8.4 °F 6.7 °F 1042.5 in Calm   3.2 mph 89 % 0.0 in
13:45 8.7 °F 7.1 °F 1042.2 in Calm     90 % 0.0 in
14:00 8.8 °F 7.1 °F 1042.2 in Calm     89 % 0.0 in
14:15 9.1 °F 7.3 °F 1042.2 in Calm   3.2 mph 89 % 0.0 in
14:30 9.1 °F 7.4 °F 1042.2 in Calm   3.2 mph 89 % 0.0 in
14:45 9.3 °F 7.6 °F 1042.2 in Calm     89 % 0.0 in
15:00 9.4 °F 7.7 °F 1041.9 in Calm     89 % 0.0 in
15:15 9.3 °F 7.3 °F 1041.9 in Calm     87 % 0.0 in
15:30 9.9 °F 7.7 °F 1041.5 in Calm   1.6 mph 86 % 0.0 in
15:45 10.3 °F 7.9 °F 1041.5 in Calm   3.2 mph 85 % 0.0 in
16:00 10.3 °F 8.0 °F 1041.5 in Calm     86 % 0.0 in
16:15 10.3 °F 7.7 °F 1041.2 in Calm     84 % 0.0 in
16:30 10.3 °F 7.7 °F 1041.5 in Calm     84 % 0.0 in
16:45 10.4 °F 7.9 °F 1041.2 in Calm     84 % 0.0 in
17:00 10.7 °F 8.1 °F 1041.2 in Calm     84 % 0.0 in
17:15 10.3 °F 7.7 °F 1040.9 in Calm     84 % 0.0 in
17:30 9.8 °F 7.6 °F 1040.9 in Calm     86 % 0.0 in
17:45 9.5 °F 7.4 °F 1040.9 in Calm     87 % 0.0 in
18:00 9.1 °F 7.2 °F 1040.9 in Calm     88 % 0.0 in
18:15 8.8 °F 7.1 °F 1040.5 in Calm     89 % 0.0 in
18:30 8.6 °F 7.0 °F 1040.5 in Calm     90 % 0.0 in
18:45 8.3 °F 6.7 °F 1040.5 in Calm     90 % 0.0 in
19:00 7.9 °F 6.5 °F 1040.5 in Calm     91 % 0.0 in
19:15 7.4 °F 6.2 °F 1040.5 in Calm     92 % 0.0 in
19:45 6.5 °F 5.4 °F 1040.5 in Calm     93 % 0.0 in
20:00 6.0 °F 5.0 °F 1040.5 in Calm     93 % 0.0 in
20:15 5.5 °F 4.6 °F 1040.5 in Calm     94 % 0.0 in
20:30 5.1 °F 4.2 °F 1040.5 in Calm     94 % 0.0 in
20:45 4.7 °F 3.8 °F 1040.5 in Calm     94 % 0.0 in
21:00 4.4 °F 3.7 °F 1040.5 in Calm     95 % 0.0 in
21:15 4.2 °F 3.4 °F 1040.5 in Calm     95 % 0.0 in
21:30 3.9 °F 3.2 °F 1040.5 in Calm     95 % 0.0 in
21:45 3.8 °F 3.1 °F 1040.5 in Calm     95 % 0.0 in
22:00 3.7 °F 2.9 °F 1040.5 in Calm     95 % 0.0 in
22:15 3.5 °F 2.9 °F 1040.5 in Calm     96 % 0.0 in
22:30 3.4 °F 2.8 °F 1040.5 in Calm     96 % 0.0 in
22:45 3.1 °F 2.4 °F 1040.5 in Calm     95 % 0.0 in
23:00 2.9 °F 2.3 °F 1040.5 in Calm     96 % 0.0 in
23:30 2.7 °F 2.1 °F 1040.2 in Calm     96 % 0.0 in
23:45 2.6 °F 2.0 °F 1040.2 in Calm     96 % 0.0 in
Esan sääasema
Terveisin Weather Underground - 2.75 mb

Alkuperäinen skripti  Jim McMurry - jmcmurry@mwt.net Sovitettu myös templatelle  Wim van der Kuil - Leuven-Template.eu

Laitteet joita käytämme:

Sääasema
Davis VP2

Sääasemaohjelma
Cumulus

Sääaseman tietokone
Asus EeePC

Palveluntarjoaja
Suncomet

Davis VP2

Cumulus

Asus EeePC

Suncomet